createdAt,value
2022-11-25T00:01:29.708Z,43.70
2022-11-25T00:03:56.198Z,43.60
2022-11-25T00:06:22.633Z,43.10
2022-11-25T00:08:49.092Z,43.50
2022-11-25T00:11:15.533Z,43.60
2022-11-25T00:13:42.002Z,43.10
2022-11-25T00:16:08.525Z,43.60
2022-11-25T00:18:35.053Z,43.40
2022-11-25T00:21:01.520Z,42.90
2022-11-25T00:23:33.070Z,42.80
2022-11-25T00:25:59.778Z,43.40
2022-11-25T00:28:26.263Z,43.40
2022-11-25T00:30:52.706Z,43.40
2022-11-25T00:33:19.170Z,43.30
2022-11-25T00:35:45.643Z,43.20
2022-11-25T00:38:12.079Z,43.10
2022-11-25T00:40:38.540Z,43.30
2022-11-25T00:43:04.966Z,42.70
2022-11-25T00:45:31.437Z,43.10
2022-11-25T00:47:57.887Z,43.20
2022-11-25T00:50:24.360Z,43.20
2022-11-25T00:52:50.789Z,42.80
2022-11-25T00:55:17.227Z,42.90
2022-11-25T00:57:43.706Z,43.30
2022-11-25T01:00:10.150Z,43.20
2022-11-25T01:02:36.681Z,42.80
2022-11-25T01:05:03.208Z,43.20
2022-11-25T01:07:29.723Z,43.20
2022-11-25T01:09:56.241Z,42.90
2022-11-25T01:12:22.703Z,43.10
2022-11-25T01:14:49.169Z,43.20
2022-11-25T01:17:15.677Z,42.70
2022-11-25T01:19:42.156Z,42.60
2022-11-25T01:22:08.660Z,43.00
2022-11-25T01:24:35.299Z,42.50
2022-11-25T01:27:01.988Z,43.10
2022-11-25T01:29:28.437Z,43.20
2022-11-25T01:31:54.993Z,43.10
2022-11-25T01:34:21.532Z,43.00
2022-11-25T01:36:48.004Z,43.00
2022-11-25T01:39:14.447Z,43.00
2022-11-25T01:41:40.913Z,43.10
2022-11-25T01:44:07.367Z,42.40
2022-11-25T01:46:33.799Z,43.00
2022-11-25T01:49:00.276Z,43.00
2022-11-25T01:51:26.760Z,43.00
2022-11-25T01:53:53.209Z,42.90
2022-11-25T01:56:19.669Z,43.00
2022-11-25T01:58:46.094Z,42.60
2022-11-25T02:01:12.634Z,43.00
2022-11-25T02:03:39.101Z,43.00
2022-11-25T02:06:05.560Z,42.40
2022-11-25T02:08:32.014Z,42.50
2022-11-25T02:10:58.517Z,43.00
2022-11-25T02:13:24.953Z,43.00
2022-11-25T02:15:51.457Z,42.50
2022-11-25T02:18:17.924Z,43.00
2022-11-25T02:20:44.362Z,42.90
2022-11-25T02:23:10.825Z,42.50
2022-11-25T02:25:37.254Z,43.00
2022-11-25T02:28:03.724Z,42.90
2022-11-25T02:30:30.158Z,42.90
2022-11-25T02:32:56.579Z,43.00
2022-11-25T02:35:23.049Z,42.50
2022-11-25T02:37:49.476Z,42.80
2022-11-25T02:40:15.982Z,42.90
2022-11-25T02:42:42.414Z,42.30
2022-11-25T02:45:08.849Z,42.80
2022-11-25T02:47:35.325Z,42.90
2022-11-25T02:50:01.802Z,42.90
2022-11-25T02:52:28.273Z,42.90
2022-11-25T02:54:54.704Z,42.50
2022-11-25T02:57:21.150Z,43.00
2022-11-25T02:59:47.582Z,42.30
2022-11-25T03:02:14.168Z,43.10
2022-11-25T03:04:40.625Z,43.00
2022-11-25T03:07:07.067Z,42.50
2022-11-25T03:09:33.511Z,42.90
2022-11-25T03:11:59.942Z,43.00
2022-11-25T03:14:26.367Z,42.50
2022-11-25T03:16:52.875Z,43.20
2022-11-25T03:19:19.350Z,43.10
2022-11-25T03:21:45.791Z,43.20
2022-11-25T03:24:12.278Z,43.20
2022-11-25T03:26:38.704Z,42.70
2022-11-25T03:29:05.128Z,43.20
2022-11-25T03:31:31.621Z,43.10
2022-11-25T03:33:58.133Z,43.10
2022-11-25T03:36:24.617Z,42.70
2022-11-25T03:38:51.147Z,43.00
2022-11-25T03:41:17.558Z,43.00
2022-11-25T03:43:44.056Z,42.40
2022-11-25T03:46:10.611Z,42.90
2022-11-25T03:48:37.149Z,42.90
2022-11-25T03:51:03.598Z,42.40
2022-11-25T03:53:30.013Z,43.00
2022-11-25T03:55:56.504Z,42.90
2022-11-25T03:58:22.989Z,42.90
2022-11-25T04:00:49.419Z,42.90
2022-11-25T04:03:15.863Z,42.80
2022-11-25T04:05:42.283Z,42.70
2022-11-25T04:08:08.776Z,42.70
2022-11-25T04:10:35.237Z,42.70
2022-11-25T04:13:01.697Z,42.80
2022-11-25T04:15:28.151Z,42.80
2022-11-25T04:17:54.615Z,42.70
2022-11-25T04:20:21.103Z,42.80
2022-11-25T04:22:47.526Z,42.20
2022-11-25T04:25:14.004Z,42.80
2022-11-25T04:27:40.455Z,42.80
2022-11-25T04:30:06.931Z,42.80
2022-11-25T04:32:33.410Z,42.80
2022-11-25T04:34:59.875Z,42.10
2022-11-25T04:37:26.324Z,42.70
2022-11-25T04:39:52.743Z,42.70
2022-11-25T04:42:19.158Z,42.80
2022-11-25T04:44:56.064Z,42.30
2022-11-25T04:47:32.100Z,42.00
2022-11-25T04:49:58.584Z,42.60
2022-11-25T04:52:25.077Z,42.60
2022-11-25T04:54:51.542Z,42.60
2022-11-25T04:57:17.996Z,42.50
2022-11-25T04:59:44.551Z,42.60
2022-11-25T05:02:11.082Z,42.60
2022-11-25T05:04:37.679Z,42.70
2022-11-25T05:07:04.342Z,42.70
2022-11-25T05:09:30.829Z,42.70
2022-11-25T05:11:57.314Z,42.70
2022-11-25T05:14:23.781Z,42.70
2022-11-25T05:16:50.298Z,42.60
2022-11-25T05:19:17.005Z,42.80
2022-11-25T05:21:43.423Z,42.60
2022-11-25T05:24:09.884Z,42.60
2022-11-25T05:26:36.336Z,42.30
2022-11-25T05:29:02.773Z,42.60
2022-11-25T05:31:29.245Z,42.50
2022-11-25T05:33:55.697Z,42.50
2022-11-25T05:36:22.124Z,42.40
2022-11-25T05:38:48.548Z,42.50
2022-11-25T05:41:15.028Z,42.40
2022-11-25T05:43:41.492Z,42.40
2022-11-25T05:46:08.085Z,42.40
2022-11-25T05:48:34.637Z,42.30
2022-11-25T05:51:01.065Z,42.30
2022-11-25T05:53:27.506Z,41.80
2022-11-25T05:55:53.984Z,42.40
2022-11-25T05:58:20.461Z,42.50
2022-11-25T06:00:46.947Z,42.50
2022-11-25T06:03:13.452Z,42.50
2022-11-25T06:05:39.943Z,42.60
2022-11-25T06:08:06.387Z,42.70
2022-11-25T06:10:32.870Z,41.40
2022-11-25T06:12:59.343Z,41.70
2022-11-25T06:15:25.805Z,42.20
2022-11-25T06:17:52.235Z,42.50
2022-11-25T06:22:45.702Z,42.70
2022-11-25T06:25:12.136Z,43.00
2022-11-25T06:28:10.620Z,42.80
2022-11-25T06:30:25.051Z,43.00
2022-11-25T06:32:51.520Z,42.90
2022-11-25T06:35:17.939Z,43.40
2022-11-25T06:37:44.378Z,43.40
2022-11-25T06:40:10.826Z,43.50
2022-11-25T06:42:37.346Z,42.90
2022-11-25T06:45:03.780Z,42.60
2022-11-25T06:47:30.210Z,43.30
2022-11-25T06:49:56.675Z,43.10
2022-11-25T06:52:23.161Z,43.10
2022-11-25T06:54:49.611Z,42.90
2022-11-25T06:57:16.076Z,42.90
2022-11-25T06:59:42.543Z,42.60
2022-11-25T07:02:09.003Z,42.90
2022-11-25T07:04:35.790Z,42.20
2022-11-25T07:07:02.428Z,42.70
2022-11-25T07:09:28.901Z,42.60
2022-11-25T07:11:55.356Z,41.90
2022-11-25T07:14:21.795Z,42.40
2022-11-25T07:16:48.273Z,41.80
2022-11-25T07:19:14.706Z,42.20
2022-11-25T07:21:41.166Z,42.00
2022-11-25T07:24:07.598Z,42.40
2022-11-25T07:26:34.038Z,42.60
2022-11-25T07:29:00.505Z,42.90
2022-11-25T07:31:31.696Z,43.30
2022-11-25T07:33:59.450Z,43.30
2022-11-25T07:36:25.922Z,44.00
2022-11-25T07:38:52.400Z,44.10
2022-11-25T07:41:18.851Z,44.30
2022-11-25T07:43:45.270Z,44.30
2022-11-25T07:46:11.788Z,44.30
2022-11-25T07:48:38.233Z,43.70
2022-11-25T07:51:04.707Z,44.20
2022-11-25T07:53:31.192Z,43.70
2022-11-25T07:55:57.700Z,44.40
2022-11-25T07:58:24.153Z,44.40
2022-11-25T08:00:50.652Z,43.90
2022-11-25T08:03:17.142Z,44.40
2022-11-25T08:05:43.613Z,43.90
2022-11-25T08:08:10.164Z,44.50
2022-11-25T08:10:36.704Z,44.60
2022-11-25T08:13:03.243Z,44.70
2022-11-25T08:15:29.741Z,44.60
2022-11-25T08:17:56.242Z,44.60
2022-11-25T08:20:22.664Z,44.60
2022-11-25T08:22:49.159Z,44.00
2022-11-25T08:25:15.588Z,44.00
2022-11-25T08:27:42.042Z,44.00
2022-11-25T08:30:08.508Z,44.50
2022-11-25T08:32:34.991Z,43.90
2022-11-25T08:35:01.438Z,44.50
2022-11-25T08:37:27.872Z,44.30
2022-11-25T08:39:54.404Z,45.10
2022-11-25T08:42:21.011Z,44.40
2022-11-25T08:44:47.473Z,43.80
2022-11-25T08:47:13.930Z,43.90
2022-11-25T08:49:41.524Z,44.20
2022-11-25T08:52:08.404Z,44.20
2022-11-25T08:54:34.831Z,44.20
2022-11-25T08:57:01.302Z,44.00
2022-11-25T08:59:27.769Z,44.70
2022-11-25T09:01:54.311Z,43.50
2022-11-25T09:04:20.827Z,44.00
2022-11-25T09:06:47.311Z,43.80
2022-11-25T09:09:13.787Z,43.40
2022-11-25T09:11:40.303Z,43.80
2022-11-25T09:14:06.935Z,43.20
2022-11-25T09:16:33.484Z,43.80
2022-11-25T09:19:00.032Z,44.10
2022-11-25T09:21:26.475Z,44.20
2022-11-25T09:23:52.915Z,43.80
2022-11-25T09:26:19.346Z,44.30
2022-11-25T09:28:45.829Z,44.30
2022-11-25T09:31:12.354Z,44.30
2022-11-25T09:33:38.870Z,43.60
2022-11-25T09:36:05.317Z,43.40
2022-11-25T09:38:31.754Z,43.90
2022-11-25T09:40:58.232Z,43.70
2022-11-25T09:43:24.670Z,43.00
2022-11-25T09:45:51.151Z,43.60
2022-11-25T09:48:17.575Z,43.60
2022-11-25T09:50:44.068Z,43.50
2022-11-25T09:53:10.559Z,43.50
2022-11-25T09:55:37.044Z,43.00
2022-11-25T09:58:03.483Z,42.80
2022-11-25T10:00:29.900Z,43.40
2022-11-25T10:02:56.436Z,43.30
2022-11-25T10:05:22.911Z,43.40
2022-11-25T10:07:49.344Z,43.20
2022-11-25T10:10:15.801Z,43.20
2022-11-25T10:12:42.295Z,42.60
2022-11-25T10:15:08.736Z,43.10
2022-11-25T10:17:35.171Z,43.10
2022-11-25T10:20:01.630Z,43.20
2022-11-25T10:22:28.074Z,43.20
2022-11-25T10:24:54.547Z,43.10
2022-11-25T10:27:20.976Z,43.20
2022-11-25T10:29:47.449Z,43.10
2022-11-25T10:32:13.884Z,42.90
2022-11-25T10:34:40.354Z,43.20
2022-11-25T10:37:06.843Z,43.20
2022-11-25T10:39:33.326Z,43.20
2022-11-25T10:41:59.764Z,43.10
2022-11-25T10:44:26.178Z,42.70
2022-11-25T10:47:19.114Z,43.00
2022-11-25T10:49:39.154Z,43.10
2022-11-25T10:52:05.612Z,42.40
2022-11-25T10:54:32.087Z,43.00
2022-11-25T10:56:58.580Z,43.00
2022-11-25T10:59:25.013Z,43.00
2022-11-25T11:01:51.604Z,43.00
2022-11-25T11:04:18.154Z,43.20
2022-11-25T11:06:44.660Z,43.20
2022-11-25T11:09:11.171Z,43.20
2022-11-25T11:11:37.671Z,43.20
2022-11-25T11:14:04.118Z,43.10
2022-11-25T11:16:30.624Z,43.00
2022-11-25T11:18:57.222Z,43.00
2022-11-25T11:21:23.729Z,42.60
2022-11-25T11:23:50.240Z,42.90
2022-11-25T11:26:16.679Z,43.00
2022-11-25T11:28:43.155Z,42.90
2022-11-25T11:31:09.655Z,43.00
2022-11-25T11:33:36.111Z,43.10
2022-11-25T11:36:02.554Z,43.20
2022-11-25T11:38:28.998Z,42.70
2022-11-25T11:40:55.476Z,43.40
2022-11-25T11:43:21.979Z,43.40
2022-11-25T11:45:48.448Z,43.50
2022-11-25T11:48:14.917Z,43.40
2022-11-25T11:50:41.428Z,43.00
2022-11-25T11:53:07.867Z,42.90
2022-11-25T11:55:34.333Z,43.40
2022-11-25T11:58:00.793Z,43.40
2022-11-25T12:00:27.277Z,43.40
2022-11-25T12:02:53.792Z,43.10
2022-11-25T12:05:20.321Z,43.40
2022-11-25T12:07:46.867Z,42.90
2022-11-25T12:10:13.347Z,43.40
2022-11-25T12:12:39.829Z,42.80
2022-11-25T12:15:06.264Z,43.40
2022-11-25T12:17:32.826Z,43.40
2022-11-25T12:19:59.340Z,43.40
2022-11-25T12:22:25.792Z,43.40
2022-11-25T12:24:52.252Z,42.90
2022-11-25T12:27:18.682Z,43.50
2022-11-25T12:29:45.117Z,43.00
2022-11-25T12:32:11.598Z,43.30
2022-11-25T12:34:38.308Z,42.90
2022-11-25T12:37:04.894Z,43.40
2022-11-25T12:39:31.424Z,43.40
2022-11-25T12:41:57.862Z,43.30
2022-11-25T12:44:24.298Z,43.30
2022-11-25T12:46:50.764Z,43.40
2022-11-25T12:49:17.252Z,43.40
2022-11-25T12:51:43.685Z,44.00
2022-11-25T12:54:10.146Z,43.30
2022-11-25T12:56:36.682Z,42.80
2022-11-25T12:59:03.179Z,43.30
2022-11-25T13:01:29.825Z,43.30
2022-11-25T13:03:56.296Z,43.30
2022-11-25T13:08:49.763Z,43.20
2022-11-25T13:11:16.555Z,43.40
2022-11-25T13:13:43.454Z,43.40
2022-11-25T13:16:10.755Z,42.90
2022-11-25T13:18:37.677Z,43.30
2022-11-25T13:21:04.106Z,43.20
2022-11-25T13:23:30.571Z,43.30
2022-11-25T13:25:57.072Z,43.30
2022-11-25T13:28:23.503Z,43.30
2022-11-25T13:30:49.924Z,43.30
2022-11-25T13:33:16.354Z,42.70
2022-11-25T13:35:42.825Z,42.70
2022-11-25T13:38:09.296Z,43.30
2022-11-25T13:40:35.761Z,43.40
2022-11-25T13:43:02.321Z,43.00
2022-11-25T13:45:28.823Z,43.50
2022-11-25T13:47:55.389Z,43.40
2022-11-25T13:50:22.535Z,43.50
2022-11-25T13:52:49.225Z,43.10
2022-11-25T13:55:15.711Z,43.60
2022-11-25T13:57:42.181Z,43.60
2022-11-25T14:00:08.658Z,43.50
2022-11-25T14:05:02.276Z,43.00
2022-11-25T14:07:28.797Z,43.50
2022-11-25T14:09:55.331Z,43.10
2022-11-25T14:12:21.801Z,43.60
2022-11-25T14:14:50.185Z,43.70
2022-11-25T14:17:16.862Z,43.70
2022-11-25T14:19:51.563Z,43.60
2022-11-25T14:22:18.658Z,43.00
2022-11-25T14:24:45.143Z,43.00
2022-11-25T14:27:11.602Z,43.60
2022-11-25T14:29:38.177Z,43.50
2022-11-25T14:32:04.834Z,43.70
2022-11-25T14:34:31.293Z,43.10
2022-11-25T14:36:57.761Z,43.70
2022-11-25T14:39:24.206Z,43.80
2022-11-25T14:41:50.660Z,43.20
2022-11-25T14:44:17.130Z,43.70
2022-11-25T14:46:43.638Z,43.70
2022-11-25T14:49:30.662Z,43.70
2022-11-25T14:51:56.550Z,43.70
2022-11-25T14:54:23.013Z,43.10
2022-11-25T14:56:49.479Z,43.60
2022-11-25T14:59:15.954Z,43.70
2022-11-25T15:01:42.399Z,43.60
2022-11-25T15:04:08.930Z,43.70
2022-11-25T15:06:35.460Z,43.90
2022-11-25T15:09:01.899Z,43.80
2022-11-25T15:11:28.335Z,43.90
2022-11-25T15:13:54.754Z,43.90
2022-11-25T15:16:21.263Z,43.90
2022-11-25T15:18:47.706Z,43.80
2022-11-25T15:21:14.129Z,43.70
2022-11-25T15:23:40.597Z,43.80
2022-11-25T15:26:07.095Z,43.90
2022-11-25T15:28:33.540Z,43.80
2022-11-25T15:30:59.993Z,43.30
2022-11-25T15:33:26.477Z,43.90
2022-11-25T15:35:53.078Z,43.90
2022-11-25T15:38:19.569Z,43.90
2022-11-25T15:40:45.996Z,43.80
2022-11-25T15:43:12.467Z,43.80
2022-11-25T15:45:38.965Z,43.80
2022-11-25T15:48:05.436Z,43.80
2022-11-25T15:50:31.854Z,43.70
2022-11-25T15:52:58.325Z,43.20
2022-11-25T15:55:24.816Z,43.60
2022-11-25T15:57:51.251Z,43.40
2022-11-25T16:00:17.709Z,43.90
2022-11-25T16:02:44.308Z,43.50
2022-11-25T16:05:10.869Z,44.00
2022-11-25T16:07:37.399Z,44.00
2022-11-25T16:10:03.886Z,44.00
2022-11-25T16:12:30.318Z,44.00
2022-11-25T16:14:56.753Z,43.90
2022-11-25T16:17:23.207Z,43.90
2022-11-25T16:19:49.630Z,44.00
2022-11-25T16:22:16.145Z,43.70
2022-11-25T16:24:42.631Z,44.40
2022-11-25T16:27:09.144Z,44.30
2022-11-25T16:29:35.944Z,43.70
2022-11-25T16:32:02.654Z,43.70
2022-11-25T16:34:29.112Z,44.10
2022-11-25T16:36:55.581Z,44.10
2022-11-25T16:39:22.002Z,44.10
2022-11-25T16:41:48.474Z,44.10
2022-11-25T16:44:14.951Z,44.10
2022-11-25T16:46:41.400Z,43.70
2022-11-25T16:49:07.876Z,43.50
2022-11-25T16:51:34.368Z,44.00
2022-11-25T16:54:00.822Z,44.00
2022-11-25T16:56:27.258Z,43.60
2022-11-25T16:58:53.681Z,44.10
2022-11-25T17:01:20.189Z,44.10
2022-11-25T17:03:46.661Z,43.40
2022-11-25T17:06:17.114Z,44.00
2022-11-25T17:08:46.625Z,44.00
2022-11-25T17:11:13.070Z,44.20
2022-11-25T17:13:39.535Z,44.20
2022-11-25T17:16:06.109Z,44.10
2022-11-25T17:18:32.783Z,43.60
2022-11-25T17:20:59.276Z,44.00
2022-11-25T17:23:25.708Z,44.10
2022-11-25T17:25:52.166Z,44.00
2022-11-25T17:28:18.595Z,43.90
2022-11-25T17:30:45.076Z,43.50
2022-11-25T17:33:11.515Z,43.70
2022-11-25T17:35:37.963Z,43.90
2022-11-25T17:38:04.368Z,43.80
2022-11-25T17:40:30.814Z,43.80
2022-11-25T17:45:28.249Z,43.30
2022-11-25T17:47:54.836Z,43.80
2022-11-25T17:50:21.305Z,43.80
2022-11-25T17:52:47.808Z,43.80
2022-11-25T17:55:14.258Z,43.30
2022-11-25T17:57:40.674Z,43.20
2022-11-25T18:00:07.153Z,43.30
2022-11-25T18:02:33.670Z,43.80
2022-11-25T18:05:00.147Z,43.70
2022-11-25T18:07:26.609Z,43.70
2022-11-25T18:09:53.244Z,43.70
2022-11-25T18:12:19.745Z,43.70
2022-11-25T18:14:46.259Z,43.70
2022-11-25T18:17:12.741Z,43.70
2022-11-25T18:19:39.227Z,43.70
2022-11-25T18:22:05.692Z,43.10
2022-11-25T18:24:32.114Z,43.70
2022-11-25T18:26:58.580Z,43.10
2022-11-25T18:29:25.094Z,43.70
2022-11-25T18:31:51.573Z,43.60
2022-11-25T18:34:18.026Z,43.60
2022-11-25T18:36:44.506Z,43.60
2022-11-25T18:39:10.947Z,43.60
2022-11-25T18:41:37.391Z,43.70
2022-11-25T18:44:03.822Z,43.60
2022-11-25T18:46:30.309Z,43.60
2022-11-25T18:48:56.793Z,42.90
2022-11-25T18:51:23.264Z,42.90
2022-11-25T18:53:49.716Z,42.90
2022-11-25T18:56:17.928Z,43.40
2022-11-25T18:58:44.654Z,42.80
2022-11-25T19:01:11.198Z,43.40
2022-11-25T19:03:37.744Z,43.20
2022-11-25T19:06:04.185Z,43.20
2022-11-25T19:08:30.626Z,43.20
2022-11-25T19:10:57.097Z,43.20
2022-11-25T19:13:23.597Z,43.20
2022-11-25T19:15:50.060Z,43.30
2022-11-25T19:18:16.536Z,43.20
2022-11-25T19:20:43.008Z,43.20
2022-11-25T19:23:09.488Z,42.70
2022-11-25T19:25:35.928Z,43.30
2022-11-25T19:28:02.351Z,43.40
2022-11-25T19:30:28.849Z,43.40
2022-11-25T19:32:55.268Z,43.00
2022-11-25T19:35:21.729Z,43.40
2022-11-25T19:37:48.158Z,43.40
2022-11-25T19:40:14.627Z,43.30
2022-11-25T19:42:41.099Z,43.30
2022-11-25T19:45:07.569Z,43.40
2022-11-25T19:47:34.052Z,42.90
2022-11-25T19:50:00.478Z,43.50
2022-11-25T19:52:26.942Z,43.60
2022-11-25T19:54:53.435Z,43.10
2022-11-25T19:57:19.863Z,44.90
2022-11-25T19:59:46.320Z,43.10
2022-11-25T20:02:12.821Z,43.70
2022-11-25T20:04:39.352Z,43.70
2022-11-25T20:07:05.949Z,43.70
2022-11-25T20:09:32.396Z,43.70
2022-11-25T20:11:58.845Z,43.70
2022-11-25T20:14:25.307Z,43.70
2022-11-25T20:16:51.764Z,43.70
2022-11-25T20:19:18.305Z,43.00
2022-11-25T20:21:44.758Z,43.60
2022-11-25T20:24:11.234Z,43.60
2022-11-25T20:26:37.691Z,43.50
2022-11-25T20:29:04.164Z,43.00
2022-11-25T20:31:31.045Z,43.50
2022-11-25T20:33:57.549Z,43.60
2022-11-25T20:36:23.966Z,43.60
2022-11-25T20:38:50.454Z,43.60
2022-11-25T20:41:16.882Z,43.50
2022-11-25T20:43:43.310Z,43.60
2022-11-25T20:46:09.874Z,43.20
2022-11-25T20:48:36.434Z,43.70
2022-11-25T20:51:02.956Z,43.50
2022-11-25T20:53:29.382Z,43.10
2022-11-25T20:55:55.806Z,43.50
2022-11-25T20:58:22.220Z,43.60
2022-11-25T21:00:52.804Z,42.50
2022-11-25T21:03:22.098Z,43.70
2022-11-25T21:05:48.545Z,43.60
2022-11-25T21:08:14.999Z,43.60
2022-11-25T21:10:41.456Z,43.60
2022-11-25T21:13:07.912Z,43.10
2022-11-25T21:15:34.334Z,43.60
2022-11-25T21:18:00.770Z,43.50
2022-11-25T21:20:27.236Z,43.50
2022-11-25T21:22:53.696Z,42.90
2022-11-25T21:25:20.169Z,43.00
2022-11-25T21:27:46.596Z,43.50
2022-11-25T21:30:13.030Z,43.50
2022-11-25T21:32:39.503Z,43.50
2022-11-25T21:35:06.030Z,42.90
2022-11-25T21:37:32.467Z,43.40
2022-11-25T21:39:58.908Z,43.40
2022-11-25T21:42:25.331Z,43.40
2022-11-25T21:44:51.817Z,43.30
2022-11-25T21:47:18.295Z,43.30
2022-11-25T21:49:44.757Z,43.40
2022-11-25T21:52:11.203Z,42.90
2022-11-25T21:54:37.855Z,42.80
2022-11-25T21:57:04.508Z,43.20
2022-11-25T21:59:30.980Z,43.20
2022-11-25T22:01:57.460Z,43.20
2022-11-25T22:04:23.882Z,43.20
2022-11-25T22:06:50.308Z,43.10
2022-11-25T22:09:16.774Z,43.10
2022-11-25T22:11:43.262Z,43.10
2022-11-25T22:14:09.693Z,43.20
2022-11-25T22:16:36.209Z,42.60
2022-11-25T22:19:02.690Z,43.10
2022-11-25T22:21:29.109Z,43.20
2022-11-25T22:23:55.554Z,42.60
2022-11-25T22:26:21.971Z,43.20
2022-11-25T22:28:48.415Z,43.20
2022-11-25T22:31:14.944Z,43.20
2022-11-25T22:33:41.473Z,43.20
2022-11-25T22:36:09.818Z,43.00
2022-11-25T22:38:36.309Z,42.50
2022-11-25T22:41:02.796Z,43.10
2022-11-25T22:43:29.226Z,43.00
2022-11-25T22:45:55.734Z,43.00
2022-11-25T22:48:22.236Z,42.40
2022-11-25T22:50:48.715Z,42.40
2022-11-25T22:53:15.160Z,43.70
2022-11-25T22:55:41.627Z,43.00
2022-11-25T22:58:08.118Z,43.00
2022-11-25T23:00:34.697Z,43.00
2022-11-25T23:03:01.217Z,42.50
2022-11-25T23:05:32.263Z,43.00
2022-11-25T23:07:59.405Z,43.10
2022-11-25T23:10:25.876Z,43.10
2022-11-25T23:12:52.343Z,43.10
2022-11-25T23:15:18.816Z,43.10
2022-11-25T23:17:45.238Z,43.10
2022-11-25T23:20:11.649Z,43.20
2022-11-25T23:22:38.104Z,43.20
2022-11-25T23:25:04.580Z,42.70
2022-11-25T23:27:30.998Z,43.30
2022-11-25T23:29:57.479Z,43.30
2022-11-25T23:32:23.947Z,43.20
2022-11-25T23:34:50.386Z,42.70
2022-11-25T23:37:16.854Z,43.20
2022-11-25T23:39:43.299Z,43.20
2022-11-25T23:42:09.718Z,43.10
2022-11-25T23:44:36.492Z,42.50
2022-11-25T23:47:03.102Z,43.00
2022-11-25T23:49:29.518Z,42.90
2022-11-25T23:51:55.994Z,42.80
2022-11-25T23:54:22.423Z,42.30
2022-11-25T23:56:48.898Z,42.90
2022-11-25T23:59:15.356Z,42.80
